createdAt,value
2018-05-26T00:01:24.484Z,86.10
2018-05-26T00:03:51.917Z,86.10
2018-05-26T00:06:19.365Z,85.70
2018-05-26T00:08:47.570Z,82.50
2018-05-26T00:11:15.020Z,82.50
2018-05-26T00:13:42.456Z,82.20
2018-05-26T00:16:09.899Z,81.20
2018-05-26T00:18:38.102Z,84.40
2018-05-26T00:21:05.549Z,84.40
2018-05-26T00:23:32.983Z,83.00
2018-05-26T00:26:01.196Z,82.80
2018-05-26T00:28:28.634Z,82.80
2018-05-26T00:30:56.841Z,81.10
2018-05-26T00:33:24.285Z,81.10
2018-05-26T00:35:51.731Z,81.10
2018-05-26T00:38:19.163Z,82.30
2018-05-26T00:40:47.378Z,81.50
2018-05-26T00:43:14.809Z,81.50
2018-05-26T00:45:42.254Z,82.50
2018-05-26T00:48:10.462Z,84.70
2018-05-26T00:50:37.915Z,84.60
2018-05-26T00:53:05.349Z,85.00
2018-05-26T00:55:33.551Z,86.20
2018-05-26T00:58:00.998Z,86.20
2018-05-26T01:00:28.440Z,86.70
2018-05-26T01:02:56.651Z,86.80
2018-05-26T01:05:24.083Z,86.80
2018-05-26T01:07:51.530Z,83.60
2018-05-26T01:10:19.731Z,82.60
2018-05-26T01:12:47.175Z,82.60
2018-05-26T01:15:14.610Z,82.80
2018-05-26T01:17:42.823Z,82.80
2018-05-26T01:20:10.259Z,82.80
2018-05-26T01:22:37.702Z,83.50
2018-05-26T01:25:05.903Z,85.40
2018-05-26T01:27:33.346Z,85.30
2018-05-26T01:30:00.813Z,84.50
2018-05-26T01:32:28.248Z,85.00
2018-05-26T01:34:56.446Z,83.20
2018-05-26T01:37:23.895Z,83.20
2018-05-26T01:39:51.335Z,83.70
2018-05-26T01:42:19.546Z,83.20
2018-05-26T01:44:46.981Z,83.20
2018-05-26T01:47:14.427Z,82.70
2018-05-26T01:49:43.166Z,83.40
2018-05-26T01:52:11.379Z,84.50
2018-05-26T01:54:39.586Z,86.70
2018-05-26T01:57:07.040Z,86.00
2018-05-26T01:59:34.467Z,83.20
2018-05-26T02:02:01.911Z,85.60
2018-05-26T02:04:29.346Z,86.50
2018-05-26T02:06:56.794Z,86.90
2018-05-26T02:09:24.236Z,86.30
2018-05-26T02:11:51.676Z,86.80
2018-05-26T02:14:19.118Z,86.90
2018-05-26T02:16:47.327Z,87.70
2018-05-26T02:19:14.811Z,87.70
2018-05-26T02:21:42.202Z,89.10
2018-05-26T02:24:10.420Z,87.60
2018-05-26T02:26:37.854Z,87.60
2018-05-26T02:29:05.294Z,86.80
2018-05-26T02:31:33.496Z,86.40
2018-05-26T02:34:00.947Z,86.40
2018-05-26T02:36:28.387Z,87.90
2018-05-26T02:38:56.599Z,88.40
2018-05-26T02:41:24.043Z,88.20
2018-05-26T02:43:51.491Z,88.30
2018-05-26T02:46:18.925Z,88.00
2018-05-26T02:48:47.135Z,88.40
2018-05-26T02:51:14.593Z,88.40
2018-05-26T02:53:42.781Z,87.10
2018-05-26T02:56:10.211Z,87.10
2018-05-26T02:58:37.649Z,86.00
2018-05-26T03:01:05.859Z,87.80
2018-05-26T03:03:33.308Z,87.80
2018-05-26T03:06:06.517Z,87.20
2018-05-26T03:08:39.702Z,86.00
2018-05-26T03:11:12.812Z,85.20
2018-05-26T03:13:45.948Z,86.40
2018-05-26T03:19:11.104Z,84.90
2018-05-26T03:21:38.538Z,85.80
2018-05-26T03:24:06.750Z,85.60
2018-05-26T03:26:34.179Z,85.40
2018-05-26T03:29:01.627Z,86.30
2018-05-26T03:31:29.059Z,86.60
2018-05-26T03:33:56.506Z,86.20
2018-05-26T03:36:23.951Z,86.50
2018-05-26T03:38:51.395Z,86.60
2018-05-26T03:41:18.831Z,87.30
2018-05-26T03:43:46.286Z,88.00
2018-05-26T03:46:13.715Z,87.90
2018-05-26T03:48:41.919Z,86.00
2018-05-26T03:51:09.371Z,86.00
2018-05-26T03:53:36.811Z,85.60
2018-05-26T03:56:16.895Z,87.40
2018-05-26T03:58:56.312Z,87.30
2018-05-26T04:01:23.747Z,86.30
2018-05-26T04:03:51.959Z,85.50
2018-05-26T04:06:19.400Z,85.50
2018-05-26T04:08:46.839Z,86.30
2018-05-26T04:11:15.085Z,87.10
2018-05-26T04:13:42.479Z,87.10
2018-05-26T04:16:10.692Z,85.90
2018-05-26T04:18:38.131Z,85.80
2018-05-26T04:21:05.575Z,87.70
2018-05-26T04:23:33.008Z,86.20
2018-05-26T04:26:00.454Z,87.40
2018-05-26T04:28:27.887Z,88.70
2018-05-26T04:30:55.333Z,88.60
2018-05-26T04:33:22.769Z,89.20
2018-05-26T04:35:50.222Z,88.50
2018-05-26T04:38:17.655Z,88.30
2018-05-26T04:40:45.869Z,88.50
2018-05-26T04:43:13.301Z,88.50
2018-05-26T04:45:40.749Z,89.00
2018-05-26T04:48:08.950Z,90.10
2018-05-26T04:50:36.400Z,90.10
2018-05-26T04:53:03.830Z,90.00
2018-05-26T04:55:32.043Z,89.50
2018-05-26T04:57:59.474Z,89.50
2018-05-26T05:00:27.686Z,90.20
2018-05-26T05:02:55.126Z,90.20
2018-05-26T05:05:22.570Z,90.10
2018-05-26T05:07:50.008Z,90.20
2018-05-26T05:10:17.450Z,90.70
2018-05-26T05:12:44.888Z,91.00
2018-05-26T05:15:12.331Z,91.10
2018-05-26T05:17:39.770Z,91.00
2018-05-26T05:20:07.213Z,89.60
2018-05-26T05:22:35.408Z,88.50
2018-05-26T05:25:02.860Z,88.50
2018-05-26T05:27:30.299Z,88.90
2018-05-26T05:29:58.496Z,89.00
2018-05-26T05:32:25.968Z,88.90
2018-05-26T05:34:53.370Z,89.50
2018-05-26T05:37:21.591Z,90.50
2018-05-26T05:39:49.017Z,90.50
2018-05-26T05:42:17.235Z,90.80
2018-05-26T05:44:44.670Z,90.80
2018-05-26T05:47:12.116Z,90.80
2018-05-26T05:49:39.551Z,90.60
2018-05-26T05:52:07.769Z,90.20
2018-05-26T05:54:35.194Z,90.20
2018-05-26T05:57:03.408Z,89.90
2018-05-26T05:59:30.840Z,89.90
2018-05-26T06:01:58.285Z,90.40
2018-05-26T06:04:26.486Z,90.60
2018-05-26T06:06:53.931Z,90.60
2018-05-26T06:09:21.357Z,90.60
2018-05-26T06:11:49.579Z,90.10
2018-05-26T06:14:17.011Z,90.10
2018-05-26T06:16:44.454Z,90.70
2018-05-26T06:19:12.658Z,87.00
2018-05-26T06:21:40.501Z,87.10
2018-05-26T06:24:08.690Z,82.90
2018-05-26T06:26:36.191Z,82.90
2018-05-26T06:29:03.623Z,82.20
2018-05-26T06:31:31.068Z,82.80
2018-05-26T06:33:58.497Z,81.20
2018-05-26T06:36:26.699Z,81.40
2018-05-26T06:38:54.147Z,81.40
2018-05-26T06:41:21.581Z,85.40
2018-05-26T06:43:49.018Z,85.30
2018-05-26T06:46:16.455Z,81.60
2018-05-26T06:48:43.902Z,82.20
2018-05-26T06:51:11.339Z,81.80
2018-05-26T06:53:38.790Z,75.80
2018-05-26T06:56:06.252Z,75.20
2018-05-26T06:58:33.690Z,79.90
2018-05-26T07:01:01.894Z,77.70
2018-05-26T07:03:29.354Z,77.80
2018-05-26T07:05:56.781Z,80.20
2018-05-26T07:08:24.997Z,76.70
2018-05-26T07:10:52.445Z,76.60
2018-05-26T07:13:19.890Z,75.60
2018-05-26T07:15:47.323Z,76.20
2018-05-26T07:18:15.535Z,76.20
2018-05-26T07:20:42.962Z,76.10
2018-05-26T07:23:10.410Z,75.40
2018-05-26T07:25:38.610Z,75.00
2018-05-26T07:28:06.060Z,75.00
2018-05-26T07:30:33.499Z,75.20
2018-05-26T07:33:01.715Z,72.00
2018-05-26T07:35:29.150Z,72.00
2018-05-26T07:37:56.590Z,72.00
2018-05-26T07:40:24.795Z,72.50
2018-05-26T07:42:52.230Z,72.40
2018-05-26T07:45:20.438Z,71.40
2018-05-26T07:47:47.876Z,71.40
2018-05-26T07:50:15.317Z,71.00
2018-05-26T07:52:43.519Z,70.20
2018-05-26T07:55:10.972Z,70.20
2018-05-26T07:57:38.412Z,69.10
2018-05-26T08:00:05.905Z,69.00
2018-05-26T08:02:34.058Z,68.40
2018-05-26T08:05:01.505Z,68.30
2018-05-26T08:07:28.942Z,66.10
2018-05-26T08:09:57.154Z,66.00
2018-05-26T08:12:24.587Z,65.70
2018-05-26T08:14:52.040Z,64.80
2018-05-26T08:17:20.273Z,59.40
2018-05-26T08:19:47.691Z,59.40
2018-05-26T08:22:15.125Z,60.20
2018-05-26T08:24:43.333Z,61.80
2018-05-26T08:27:10.783Z,62.40
2018-05-26T08:29:38.210Z,61.60
2018-05-26T08:32:06.417Z,59.10
2018-05-26T08:34:33.863Z,59.10
2018-05-26T08:37:01.295Z,60.00
2018-05-26T08:39:29.508Z,58.10
2018-05-26T08:41:56.939Z,58.00
2018-05-26T08:44:25.159Z,57.60
2018-05-26T08:46:52.588Z,57.60
2018-05-26T08:49:20.037Z,56.40
2018-05-26T08:51:47.485Z,55.70
2018-05-26T08:54:15.691Z,54.90
2018-05-26T08:56:43.144Z,54.90
2018-05-26T08:59:10.584Z,55.40
2018-05-26T09:01:38.024Z,56.60
2018-05-26T09:04:06.231Z,56.10
2018-05-26T09:06:33.685Z,56.00
2018-05-26T09:09:01.118Z,56.10
2018-05-26T09:11:29.328Z,55.50
2018-05-26T09:13:56.768Z,55.40
2018-05-26T09:16:24.209Z,55.50
2018-05-26T09:18:52.410Z,55.20
2018-05-26T09:21:19.856Z,55.10
2018-05-26T09:23:47.293Z,54.20
2018-05-26T09:26:15.506Z,52.90
2018-05-26T09:28:42.938Z,52.90
2018-05-26T09:31:10.383Z,55.30
2018-05-26T09:33:38.588Z,54.60
2018-05-26T09:36:06.042Z,54.60
2018-05-26T09:38:33.478Z,52.40
2018-05-26T09:41:01.691Z,53.70
2018-05-26T09:43:29.123Z,53.70
2018-05-26T09:45:56.566Z,52.90
2018-05-26T09:48:24.010Z,51.90
2018-05-26T09:50:52.215Z,51.30
2018-05-26T09:53:19.650Z,51.20
2018-05-26T09:55:47.855Z,49.90
2018-05-26T09:58:15.291Z,49.80
2018-05-26T10:00:42.738Z,50.70
2018-05-26T10:03:10.943Z,50.80
2018-05-26T10:05:38.375Z,50.80
2018-05-26T10:08:06.585Z,51.90
2018-05-26T10:10:34.027Z,51.90
2018-05-26T10:13:01.463Z,51.30
2018-05-26T10:15:29.666Z,51.90
2018-05-26T10:17:57.115Z,51.90
2018-05-26T10:20:24.554Z,50.30
2018-05-26T10:22:52.011Z,51.70
2018-05-26T10:25:20.209Z,53.80
2018-05-26T10:27:47.655Z,53.80
2018-05-26T10:30:15.086Z,51.50
2018-05-26T10:32:43.298Z,50.00
2018-05-26T10:35:10.737Z,49.90
2018-05-26T10:37:38.942Z,50.60
2018-05-26T10:40:06.384Z,50.40
2018-05-26T10:42:33.836Z,50.60
2018-05-26T10:45:01.271Z,50.20
2018-05-26T10:47:29.547Z,49.60
2018-05-26T10:49:57.758Z,48.90
2018-05-26T10:52:25.213Z,48.90
2018-05-26T10:54:52.641Z,48.50
2018-05-26T10:57:20.841Z,49.00
2018-05-26T10:59:48.281Z,49.00
2018-05-26T11:02:15.726Z,47.30
2018-05-26T11:04:43.927Z,49.20
2018-05-26T11:07:11.362Z,49.20
2018-05-26T11:09:39.579Z,52.00
2018-05-26T11:12:07.015Z,51.90
2018-05-26T11:14:34.508Z,50.60
2018-05-26T11:17:01.912Z,49.40
2018-05-26T11:19:30.107Z,51.60
2018-05-26T11:21:57.546Z,51.50
2018-05-26T11:24:25.091Z,51.00
2018-05-26T11:26:53.183Z,52.50
2018-05-26T11:29:20.623Z,52.50
2018-05-26T11:31:48.822Z,52.00
2018-05-26T11:34:16.270Z,51.90
2018-05-26T11:36:43.709Z,51.90
2018-05-26T11:39:11.926Z,50.70
2018-05-26T11:41:39.363Z,50.70
2018-05-26T11:44:06.807Z,52.50
2018-05-26T11:46:35.012Z,54.70
2018-05-26T11:49:02.466Z,54.80
2018-05-26T11:51:29.899Z,52.30
2018-05-26T11:53:57.360Z,53.70
2018-05-26T11:56:24.791Z,53.30
2018-05-26T11:58:52.237Z,52.50
2018-05-26T12:01:19.670Z,54.20
2018-05-26T12:03:47.114Z,54.50
2018-05-26T12:06:14.552Z,54.80
2018-05-26T12:08:42.010Z,54.20
2018-05-26T12:11:09.457Z,53.70
2018-05-26T12:13:37.647Z,53.00
2018-05-26T12:16:05.091Z,53.00
2018-05-26T12:18:32.538Z,52.10
2018-05-26T12:21:00.748Z,49.70
2018-05-26T12:23:28.186Z,49.60
2018-05-26T12:25:55.631Z,54.20
2018-05-26T12:28:23.832Z,52.50
2018-05-26T12:30:51.283Z,52.50
2018-05-26T12:33:18.718Z,51.30
2018-05-26T12:35:46.938Z,54.10
2018-05-26T12:38:14.376Z,54.10
2018-05-26T12:40:41.820Z,52.70
2018-05-26T12:43:09.268Z,53.70
2018-05-26T12:45:37.487Z,52.40
2018-05-26T12:48:04.923Z,52.40
2018-05-26T12:50:32.371Z,52.70
2018-05-26T12:52:59.798Z,51.70
2018-05-26T12:55:28.010Z,53.00
2018-05-26T12:57:55.453Z,53.10
2018-05-26T13:00:23.663Z,52.90
2018-05-26T13:02:51.511Z,52.80
2018-05-26T13:05:18.946Z,51.50
2018-05-26T13:07:46.387Z,49.40
2018-05-26T13:10:14.596Z,49.80
2018-05-26T13:12:42.035Z,49.80
2018-05-26T13:15:09.490Z,49.00
2018-05-26T13:17:36.934Z,50.20
2018-05-26T13:20:05.158Z,51.40
2018-05-26T13:22:32.604Z,51.40
2018-05-26T13:25:00.039Z,49.50
2018-05-26T13:27:27.484Z,48.40
2018-05-26T13:29:55.689Z,47.60
2018-05-26T13:32:23.130Z,47.60
2018-05-26T13:34:50.565Z,48.30
2018-05-26T13:37:18.781Z,50.50
2018-05-26T13:39:46.219Z,50.50
2018-05-26T13:42:13.671Z,48.80
2018-05-26T13:44:41.873Z,49.40
2018-05-26T13:47:09.318Z,49.30
2018-05-26T13:49:36.756Z,49.20
2018-05-26T13:52:04.975Z,47.70
2018-05-26T13:54:32.419Z,47.60
2018-05-26T13:56:59.842Z,46.80
2018-05-26T13:59:28.043Z,50.10
2018-05-26T14:01:55.496Z,50.10
2018-05-26T14:04:22.930Z,50.00
2018-05-26T14:06:51.144Z,48.90
2018-05-26T14:09:18.581Z,48.90
2018-05-26T14:11:46.030Z,49.40
2018-05-26T14:14:13.459Z,49.80
2018-05-26T14:16:40.905Z,50.10
2018-05-26T14:19:08.338Z,48.30
2018-05-26T14:21:35.778Z,48.70
2018-05-26T14:24:03.211Z,50.00
2018-05-26T14:26:30.663Z,51.30
2018-05-26T14:28:58.865Z,48.70
2018-05-26T14:31:26.301Z,48.70
2018-05-26T14:33:53.742Z,47.10
2018-05-26T14:36:21.962Z,48.30
2018-05-26T14:38:49.396Z,48.20
2018-05-26T14:41:16.826Z,47.00
2018-05-26T14:43:45.043Z,49.10
2018-05-26T14:46:12.469Z,49.00
2018-05-26T14:48:40.692Z,49.60
2018-05-26T14:51:08.886Z,49.50
2018-05-26T14:53:36.328Z,48.80
2018-05-26T14:56:03.767Z,48.90
2018-05-26T14:58:31.214Z,49.00
2018-05-26T15:00:58.655Z,49.40
2018-05-26T15:03:26.864Z,51.00
2018-05-26T15:05:54.298Z,51.00
2018-05-26T15:08:21.749Z,50.10
2018-05-26T15:10:50.006Z,50.10
2018-05-26T15:13:17.492Z,50.10
2018-05-26T15:15:44.889Z,48.80
2018-05-26T15:18:12.334Z,48.90
2018-05-26T15:20:39.775Z,49.10
2018-05-26T15:23:07.218Z,48.10
2018-05-26T15:25:34.658Z,48.60
2018-05-26T15:28:02.877Z,49.30
2018-05-26T15:30:30.314Z,49.30
2018-05-26T15:32:57.767Z,49.90
2018-05-26T15:35:25.199Z,51.40
2018-05-26T15:37:53.413Z,52.10
2018-05-26T15:40:20.848Z,52.10
2018-05-26T15:42:48.275Z,51.50
2018-05-26T15:45:15.714Z,51.50
2018-05-26T15:47:43.160Z,51.90
2018-05-26T15:50:10.596Z,51.90
2018-05-26T15:52:38.030Z,52.30
2018-05-26T15:55:05.484Z,52.00
2018-05-26T15:57:32.922Z,53.20
2018-05-26T16:00:01.218Z,53.20
2018-05-26T16:02:28.571Z,53.10
2018-05-26T16:04:56.014Z,53.40
2018-05-26T16:07:24.218Z,54.90
2018-05-26T16:09:51.667Z,54.80
2018-05-26T16:12:19.661Z,54.80
2018-05-26T16:14:47.108Z,53.80
2018-05-26T16:17:14.543Z,54.00
2018-05-26T16:19:41.986Z,53.40
2018-05-26T16:22:10.192Z,54.10
2018-05-26T16:24:37.635Z,54.10
2018-05-26T16:27:05.070Z,53.60
2018-05-26T16:29:33.321Z,53.20
2018-05-26T16:32:00.726Z,53.20
2018-05-26T16:34:28.179Z,53.80
2018-05-26T16:36:56.375Z,52.30
2018-05-26T16:39:23.821Z,52.20
2018-05-26T16:41:51.267Z,53.00
2018-05-26T16:44:19.466Z,51.50
2018-05-26T16:46:46.900Z,51.40
2018-05-26T16:49:14.357Z,51.60
2018-05-26T16:51:41.803Z,52.00
2018-05-26T16:54:09.997Z,53.10
2018-05-26T16:56:37.439Z,53.00
2018-05-26T16:59:05.640Z,52.50
2018-05-26T17:01:33.086Z,52.40
2018-05-26T17:04:00.522Z,52.00
2018-05-26T17:06:28.734Z,50.90
2018-05-26T17:08:56.173Z,50.90
2018-05-26T17:11:23.621Z,51.70
2018-05-26T17:13:51.821Z,51.10
2018-05-26T17:16:19.259Z,51.10
2018-05-26T17:18:46.698Z,51.40
2018-05-26T17:21:14.921Z,53.20
2018-05-26T17:23:42.374Z,53.10
2018-05-26T17:26:09.818Z,52.90
2018-05-26T17:28:37.254Z,53.20
2018-05-26T17:31:05.471Z,52.70
2018-05-26T17:33:32.911Z,52.70
2018-05-26T17:36:00.350Z,53.20
2018-05-26T17:38:27.786Z,54.50
2018-05-26T17:40:55.231Z,54.30
2018-05-26T17:43:22.672Z,55.20
2018-05-26T17:45:50.104Z,56.10
2018-05-26T17:48:17.538Z,57.70
2018-05-26T17:50:44.992Z,58.00
2018-05-26T17:53:13.195Z,58.20
2018-05-26T17:55:40.643Z,58.20
2018-05-26T18:00:41.919Z,59.80
2018-05-26T18:03:09.457Z,59.30
2018-05-26T18:05:36.839Z,58.90
2018-05-26T18:08:04.275Z,59.20
2018-05-26T18:10:31.717Z,59.50
2018-05-26T18:12:59.158Z,61.60
2018-05-26T18:15:27.357Z,61.80
2018-05-26T18:17:54.802Z,61.60
2018-05-26T18:20:23.233Z,61.80
2018-05-26T18:22:50.663Z,62.40
2018-05-26T18:25:18.106Z,62.90
2018-05-26T18:27:45.542Z,64.10
2018-05-26T18:30:13.742Z,64.60
2018-05-26T18:32:41.186Z,64.60
2018-05-26T18:35:08.623Z,64.60
2018-05-26T18:37:36.843Z,62.90
2018-05-26T18:40:04.280Z,62.90
2018-05-26T18:42:31.728Z,64.00
2018-05-26T18:44:59.929Z,65.60
2018-05-26T18:47:27.378Z,65.60
2018-05-26T18:49:54.825Z,65.70
2018-05-26T18:52:22.274Z,65.70
2018-05-26T18:54:50.485Z,66.70
2018-05-26T18:57:17.936Z,66.60
2018-05-26T18:59:45.374Z,66.10
2018-05-26T19:02:12.826Z,65.80
2018-05-26T19:04:40.258Z,65.10
2018-05-26T19:07:08.472Z,66.60
2018-05-26T19:09:35.906Z,66.10
2018-05-26T19:12:04.127Z,67.40
2018-05-26T19:14:31.575Z,67.40
2018-05-26T19:16:59.021Z,67.70
2018-05-26T19:19:26.454Z,68.60
2018-05-26T19:21:54.660Z,67.70
2018-05-26T19:24:22.103Z,67.60
2018-05-26T19:26:49.541Z,67.40
2018-05-26T19:29:17.751Z,68.70
2018-05-26T19:31:45.190Z,68.70
2018-05-26T19:34:12.648Z,68.50
2018-05-26T19:36:40.071Z,68.00
2018-05-26T19:39:07.514Z,67.50
2018-05-26T19:41:34.946Z,67.80
2018-05-26T19:44:02.456Z,67.60
2018-05-26T19:46:29.840Z,67.40
2018-05-26T19:48:57.294Z,66.80
2018-05-26T19:51:24.738Z,67.90
2018-05-26T19:53:52.947Z,68.60
2018-05-26T19:56:20.378Z,68.60
2018-05-26T19:58:47.827Z,68.70
2018-05-26T20:01:15.258Z,68.50
2018-05-26T20:03:42.711Z,67.50
2018-05-26T20:06:10.149Z,68.20
2018-05-26T20:08:37.595Z,69.30
2018-05-26T20:11:05.033Z,70.00
2018-05-26T20:13:32.488Z,69.70
2018-05-26T20:15:59.918Z,70.10
2018-05-26T20:18:28.119Z,66.60
2018-05-26T20:20:55.570Z,66.50
2018-05-26T20:23:23.003Z,67.60
2018-05-26T20:25:51.215Z,67.00
2018-05-26T20:28:18.651Z,66.90
2018-05-26T20:30:46.096Z,66.90
2018-05-26T20:33:14.303Z,68.10
2018-05-26T20:35:41.738Z,68.10
2018-05-26T20:38:09.176Z,68.90
2018-05-26T20:40:37.388Z,68.80
2018-05-26T20:43:04.821Z,68.70
2018-05-26T20:45:32.271Z,68.50
2018-05-26T20:48:00.475Z,67.50
2018-05-26T20:50:27.918Z,67.50
2018-05-26T20:52:55.363Z,67.60
2018-05-26T20:55:23.568Z,68.00
2018-05-26T20:57:51.003Z,68.00
2018-05-26T21:00:18.448Z,69.00
2018-05-26T21:02:46.645Z,68.40
2018-05-26T21:05:14.100Z,68.30
2018-05-26T21:07:41.531Z,71.00
2018-05-26T21:10:09.749Z,72.00
2018-05-26T21:12:37.185Z,72.00
2018-05-26T21:15:04.670Z,74.10
2018-05-26T21:17:32.079Z,71.60
2018-05-26T21:20:00.295Z,74.00
2018-05-26T21:22:27.754Z,74.00
2018-05-26T21:24:55.177Z,73.80
2018-05-26T21:27:23.381Z,75.50
2018-05-26T21:29:50.823Z,75.50
2018-05-26T21:32:18.547Z,73.80
2018-05-26T21:34:46.013Z,74.30
2018-05-26T21:37:13.446Z,73.50
2018-05-26T21:39:40.878Z,73.40
2018-05-26T21:42:08.323Z,73.30
2018-05-26T21:44:35.765Z,73.80
2018-05-26T21:47:03.269Z,74.60
2018-05-26T21:49:31.419Z,75.80
2018-05-26T21:51:58.863Z,75.80
2018-05-26T21:54:26.344Z,76.30
2018-05-26T21:56:53.790Z,77.20
2018-05-26T21:59:21.217Z,78.30
2018-05-26T22:01:49.436Z,79.00
2018-05-26T22:04:16.875Z,79.00
2018-05-26T22:06:44.318Z,79.20
2018-05-26T22:09:11.752Z,79.60
2018-05-26T22:11:39.973Z,81.00
2018-05-26T22:14:07.399Z,80.90
2018-05-26T22:16:34.845Z,80.60
2018-05-26T22:19:03.047Z,80.80
2018-05-26T22:21:30.494Z,80.80
2018-05-26T22:23:57.932Z,80.10
2018-05-26T22:26:26.147Z,82.60
2018-05-26T22:28:53.578Z,82.60
2018-05-26T22:31:21.786Z,83.70
2018-05-26T22:33:49.222Z,83.70
2018-05-26T22:36:16.671Z,82.70
2018-05-26T22:38:44.099Z,83.40
2018-05-26T22:41:11.542Z,83.20
2018-05-26T22:43:38.980Z,82.60
2018-05-26T22:46:06.426Z,81.30
2018-05-26T22:48:33.868Z,81.70
2018-05-26T22:51:01.316Z,80.20
2018-05-26T22:53:28.796Z,81.70
2018-05-26T22:55:56.972Z,80.70
2018-05-26T22:58:24.415Z,80.60
2018-05-26T23:00:51.851Z,79.70
2018-05-26T23:03:20.063Z,79.50
2018-05-26T23:05:47.505Z,79.50
2018-05-26T23:08:14.947Z,81.00
2018-05-26T23:10:42.391Z,80.80
2018-05-26T23:13:10.598Z,81.60
2018-05-26T23:15:38.037Z,81.60
2018-05-26T23:18:05.478Z,80.90
2018-05-26T23:20:33.679Z,81.00
2018-05-26T23:23:01.118Z,80.90
2018-05-26T23:25:29.324Z,80.60
2018-05-26T23:27:56.766Z,80.60
2018-05-26T23:30:24.198Z,81.60
2018-05-26T23:32:52.411Z,80.00
2018-05-26T23:35:19.841Z,80.00
2018-05-26T23:37:47.290Z,78.10
2018-05-26T23:40:15.491Z,75.90
2018-05-26T23:42:42.934Z,75.90
2018-05-26T23:45:10.366Z,76.80
2018-05-26T23:47:38.583Z,78.20
2018-05-26T23:50:06.015Z,77.50
2018-05-26T23:52:34.231Z,78.00
2018-05-26T23:55:01.664Z,77.90
2018-05-26T23:57:29.105Z,78.50
2018-05-26T23:59:57.307Z,77.20
